Terminal Aerodrome Forecast
Issued by NWS

Home | Current Version | Previous Version | Text Only | Print | Product List | Glossary On
Versions: 1 2 3 4 5 6 7 8 9 10 11 12 13 14 15 16 17 18 19 20 21 22 23
000
FTUS43 KIND 230700 AAA
TAFHUF
TAF AMD
KHUF 230733Z 2308/2406 00000KT 1/2SM FG VV003
      TEMPO 2308/2310 1 1/2SM BR FEW080 SCT250
     FM231300 00000KT 1 1/2SM BR BKN004
     FM231500 VRB03KT P6SM SCT025 BKN120
     FM232000 VRB03KT P6SM SCT025 BKN120 PROB30 2320/2324 3SM TSRA
      BKN020CB=

USA.gov is the U.S. government's official web portal to all federal, state and local government web resources and services.